sensor_id;sensor_type;location;lat;lon;timestamp;temperature;humidity
65046;DHT22;54657;52.022;5.534;2022-12-18T00:02:24;0.20;76.50
65046;DHT22;54657;52.022;5.534;2022-12-18T00:04:49;0.20;76.40
65046;DHT22;54657;52.022;5.534;2022-12-18T00:07:15;0.30;76.50
65046;DHT22;54657;52.022;5.534;2022-12-18T00:09:40;0.20;76.20
65046;DHT22;54657;52.022;5.534;2022-12-18T00:12:07;0.20;76.40
65046;DHT22;54657;52.022;5.534;2022-12-18T00:14:32;0.20;76.40
65046;DHT22;54657;52.022;5.534;2022-12-18T00:16:58;0.20;76.40
65046;DHT22;54657;52.022;5.534;2022-12-18T00:19:26;0.20;76.40
65046;DHT22;54657;52.022;5.534;2022-12-18T00:21:51;0.10;76.50
65046;DHT22;54657;52.022;5.534;2022-12-18T00:24:17;0.10;76.60
65046;DHT22;54657;52.022;5.534;2022-12-18T00:26:42;0.00;76.60
65046;DHT22;54657;52.022;5.534;2022-12-18T00:29:11;-0.10;76.50
65046;DHT22;54657;52.022;5.534;2022-12-18T00:31:39;-0.20;77.00
65046;DHT22;54657;52.022;5.534;2022-12-18T00:34:05;-0.30;77.20
65046;DHT22;54657;52.022;5.534;2022-12-18T00:36:33;-0.30;77.30
65046;DHT22;54657;52.022;5.534;2022-12-18T00:39:00;-0.40;77.30
65046;DHT22;54657;52.022;5.534;2022-12-18T00:41:27;-0.30;77.30
65046;DHT22;54657;52.022;5.534;2022-12-18T00:44:14;-0.30;77.30
65046;DHT22;54657;52.022;5.534;2022-12-18T00:46:41;-0.30;77.20
65046;DHT22;54657;52.022;5.534;2022-12-18T00:49:07;-0.20;77.10
65046;DHT22;54657;52.022;5.534;2022-12-18T00:51:33;-0.20;76.90
65046;DHT22;54657;52.022;5.534;2022-12-18T00:53:58;-0.20;76.90
65046;DHT22;54657;52.022;5.534;2022-12-18T00:56:24;-0.20;76.90
65046;DHT22;54657;52.022;5.534;2022-12-18T00:58:50;-0.30;76.90
65046;DHT22;54657;52.022;5.534;2022-12-18T01:01:16;-0.30;76.90
65046;DHT22;54657;52.022;5.534;2022-12-18T01:03:42;-0.40;76.90
65046;DHT22;54657;52.022;5.534;2022-12-18T01:06:09;-0.50;77.20
65046;DHT22;54657;52.022;5.534;2022-12-18T01:08:35;-0.60;77.20
65046;DHT22;54657;52.022;5.534;2022-12-18T01:11:10;-0.60;77.30
65046;DHT22;54657;52.022;5.534;2022-12-18T01:13:37;-0.60;77.20
65046;DHT22;54657;52.022;5.534;2022-12-18T01:16:03;-0.60;77.30
65046;DHT22;54657;52.022;5.534;2022-12-18T01:18:28;-0.60;77.40
65046;DHT22;54657;52.022;5.534;2022-12-18T01:20:54;-0.60;77.30
65046;DHT22;54657;52.022;5.534;2022-12-18T01:23:19;-0.50;77.10
65046;DHT22;54657;52.022;5.534;2022-12-18T01:25:45;-0.50;77.00
65046;DHT22;54657;52.022;5.534;2022-12-18T01:28:10;-0.50;76.80
65046;DHT22;54657;52.022;5.534;2022-12-18T01:30:36;-0.50;76.70
65046;DHT22;54657;52.022;5.534;2022-12-18T01:33:04;-0.50;76.70
65046;DHT22;54657;52.022;5.534;2022-12-18T01:35:30;-0.50;76.60
65046;DHT22;54657;52.022;5.534;2022-12-18T01:37:56;-0.50;76.50
65046;DHT22;54657;52.022;5.534;2022-12-18T01:40:22;-0.50;76.60
65046;DHT22;54657;52.022;5.534;2022-12-18T01:42:54;-0.50;76.50
65046;DHT22;54657;52.022;5.534;2022-12-18T01:45:26;-0.60;76.60
65046;DHT22;54657;52.022;5.534;2022-12-18T01:48:01;-0.70;76.70
65046;DHT22;54657;52.022;5.534;2022-12-18T01:50:41;-0.80;76.70
65046;DHT22;54657;52.022;5.534;2022-12-18T01:53:19;-0.80;76.70
65046;DHT22;54657;52.022;5.534;2022-12-18T01:55:49;-0.90;76.90
65046;DHT22;54657;52.022;5.534;2022-12-18T01:58:16;-0.90;76.90
65046;DHT22;54657;52.022;5.534;2022-12-18T02:00:42;-0.90;76.90
65046;DHT22;54657;52.022;5.534;2022-12-18T02:03:07;-0.90;76.60
65046;DHT22;54657;52.022;5.534;2022-12-18T02:05:48;-0.80;76.50
65046;DHT22;54657;52.022;5.534;2022-12-18T02:08:29;-0.80;76.40
65046;DHT22;54657;52.022;5.534;2022-12-18T02:11:08;-0.80;76.40
65046;DHT22;54657;52.022;5.534;2022-12-18T02:20:03;-1.00;76.50
65046;DHT22;54657;52.022;5.534;2022-12-18T02:27:56;-1.10;76.60
65046;DHT22;54657;52.022;5.534;2022-12-18T02:30:24;-1.10;76.60
65046;DHT22;54657;52.022;5.534;2022-12-18T02:32:52;-1.10;76.40
65046;DHT22;54657;52.022;5.534;2022-12-18T02:35:24;-1.00;76.40
65046;DHT22;54657;52.022;5.534;2022-12-18T02:37:54;-1.00;76.30
65046;DHT22;54657;52.022;5.534;2022-12-18T02:40:22;-1.10;76.20
65046;DHT22;54657;52.022;5.534;2022-12-18T02:42:48;-1.00;76.30
65046;DHT22;54657;52.022;5.534;2022-12-18T02:45:14;-1.00;76.40
65046;DHT22;54657;52.022;5.534;2022-12-18T02:47:43;-1.10;76.30
65046;DHT22;54657;52.022;5.534;2022-12-18T02:58:38;-1.20;76.50
65046;DHT22;54657;52.022;5.534;2022-12-18T03:04:16;-1.30;76.60
65046;DHT22;54657;52.022;5.534;2022-12-18T03:06:50;-1.40;76.70
65046;DHT22;54657;52.022;5.534;2022-12-18T03:09:22;-1.50;76.70
65046;DHT22;54657;52.022;5.534;2022-12-18T03:11:54;-1.50;76.80
65046;DHT22;54657;52.022;5.534;2022-12-18T03:14:40;-1.60;76.70
65046;DHT22;54657;52.022;5.534;2022-12-18T03:17:10;-1.40;76.60
65046;DHT22;54657;52.022;5.534;2022-12-18T03:19:38;-1.40;76.30
65046;DHT22;54657;52.022;5.534;2022-12-18T03:22:06;-1.30;76.30
65046;DHT22;54657;52.022;5.534;2022-12-18T03:24:33;-1.40;76.20
65046;DHT22;54657;52.022;5.534;2022-12-18T03:27:04;-1.40;76.20
65046;DHT22;54657;52.022;5.534;2022-12-18T03:29:36;-1.50;76.30
65046;DHT22;54657;52.022;5.534;2022-12-18T03:32:15;-1.50;76.30
65046;DHT22;54657;52.022;5.534;2022-12-18T03:34:42;-1.50;76.30
65046;DHT22;54657;52.022;5.534;2022-12-18T03:37:09;-1.50;76.40
65046;DHT22;54657;52.022;5.534;2022-12-18T03:39:35;-1.60;76.60
65046;DHT22;54657;52.022;5.534;2022-12-18T03:42:15;-1.60;76.60
65046;DHT22;54657;52.022;5.534;2022-12-18T03:44:55;-1.60;76.60
65046;DHT22;54657;52.022;5.534;2022-12-18T03:47:45;-1.60;76.60
65046;DHT22;54657;52.022;5.534;2022-12-18T03:50:19;-1.60;76.60
65046;DHT22;54657;52.022;5.534;2022-12-18T03:52:54;-1.60;76.50
65046;DHT22;54657;52.022;5.534;2022-12-18T03:55:22;-1.60;76.40
65046;DHT22;54657;52.022;5.534;2022-12-18T03:57:51;-1.60;76.30
65046;DHT22;54657;52.022;5.534;2022-12-18T04:00:18;-1.60;76.30
65046;DHT22;54657;52.022;5.534;2022-12-18T04:02:48;-1.60;76.20
65046;DHT22;54657;52.022;5.534;2022-12-18T04:05:15;-1.60;76.20
65046;DHT22;54657;52.022;5.534;2022-12-18T04:07:43;-1.60;76.20
65046;DHT22;54657;52.022;5.534;2022-12-18T04:10:10;-1.60;76.20
65046;DHT22;54657;52.022;5.534;2022-12-18T04:12:37;-1.60;76.10
65046;DHT22;54657;52.022;5.534;2022-12-18T04:15:03;-1.60;76.10
65046;DHT22;54657;52.022;5.534;2022-12-18T04:17:29;-1.60;76.10
65046;DHT22;54657;52.022;5.534;2022-12-18T04:19:54;-1.50;76.00
65046;DHT22;54657;52.022;5.534;2022-12-18T04:22:20;-1.50;76.10
65046;DHT22;54657;52.022;5.534;2022-12-18T04:24:45;-1.60;76.00
65046;DHT22;54657;52.022;5.534;2022-12-18T04:27:11;-1.70;76.00
65046;DHT22;54657;52.022;5.534;2022-12-18T04:29:36;-1.70;76.10
65046;DHT22;54657;52.022;5.534;2022-12-18T04:32:02;-1.70;76.10
65046;DHT22;54657;52.022;5.534;2022-12-18T04:34:27;-1.70;76.00
65046;DHT22;54657;52.022;5.534;2022-12-18T04:36:53;-1.60;76.00
65046;DHT22;54657;52.022;5.534;2022-12-18T04:39:18;-1.60;75.90
65046;DHT22;54657;52.022;5.534;2022-12-18T04:41:44;-1.60;75.80
65046;DHT22;54657;52.022;5.534;2022-12-18T04:44:10;-1.60;75.70
65046;DHT22;54657;52.022;5.534;2022-12-18T04:46:35;-1.60;76.20
65046;DHT22;54657;52.022;5.534;2022-12-18T04:49:01;-1.50;75.60
65046;DHT22;54657;52.022;5.534;2022-12-18T04:51:26;-1.50;75.50
65046;DHT22;54657;52.022;5.534;2022-12-18T04:53:53;-1.50;75.30
65046;DHT22;54657;52.022;5.534;2022-12-18T04:56:18;-1.40;75.20
65046;DHT22;54657;52.022;5.534;2022-12-18T04:58:44;-1.40;74.90
65046;DHT22;54657;52.022;5.534;2022-12-18T05:01:11;-1.30;75.00
65046;DHT22;54657;52.022;5.534;2022-12-18T05:03:37;-1.40;74.90
65046;DHT22;54657;52.022;5.534;2022-12-18T05:06:04;-1.40;75.00
65046;DHT22;54657;52.022;5.534;2022-12-18T05:08:30;-1.40;74.90
65046;DHT22;54657;52.022;5.534;2022-12-18T05:11:09;-1.40;75.10
65046;DHT22;54657;52.022;5.534;2022-12-18T05:13:35;-1.50;75.00
65046;DHT22;54657;52.022;5.534;2022-12-18T05:16:01;-1.50;75.20
65046;DHT22;54657;52.022;5.534;2022-12-18T05:18:28;-1.50;75.30
65046;DHT22;54657;52.022;5.534;2022-12-18T05:20:54;-1.50;75.30
65046;DHT22;54657;52.022;5.534;2022-12-18T05:23:21;-1.60;75.30
65046;DHT22;54657;52.022;5.534;2022-12-18T05:25:51;-1.50;75.20
65046;DHT22;54657;52.022;5.534;2022-12-18T05:28:17;-1.50;75.20
65046;DHT22;54657;52.022;5.534;2022-12-18T05:30:46;-1.60;75.30
65046;DHT22;54657;52.022;5.534;2022-12-18T05:33:12;-1.60;75.40
65046;DHT22;54657;52.022;5.534;2022-12-18T05:35:37;-1.70;75.40
65046;DHT22;54657;52.022;5.534;2022-12-18T05:38:03;-1.70;75.40
65046;DHT22;54657;52.022;5.534;2022-12-18T05:40:28;-1.60;75.40
65046;DHT22;54657;52.022;5.534;2022-12-18T05:42:54;-1.70;75.30
65046;DHT22;54657;52.022;5.534;2022-12-18T05:45:20;-1.70;75.40
65046;DHT22;54657;52.022;5.534;2022-12-18T05:47:45;-1.70;75.50
65046;DHT22;54657;52.022;5.534;2022-12-18T05:50:11;-1.80;75.50
65046;DHT22;54657;52.022;5.534;2022-12-18T05:52:36;-1.80;75.40
65046;DHT22;54657;52.022;5.534;2022-12-18T05:55:02;-1.80;75.40
65046;DHT22;54657;52.022;5.534;2022-12-18T05:57:27;-1.80;75.50
65046;DHT22;54657;52.022;5.534;2022-12-18T05:59:53;-1.80;75.40
65046;DHT22;54657;52.022;5.534;2022-12-18T06:02:19;-1.80;75.50
65046;DHT22;54657;52.022;5.534;2022-12-18T06:04:46;-1.80;75.30
65046;DHT22;54657;52.022;5.534;2022-12-18T06:07:12;-1.70;75.40
65046;DHT22;54657;52.022;5.534;2022-12-18T06:09:38;-1.70;75.40
65046;DHT22;54657;52.022;5.534;2022-12-18T06:12:03;-1.70;75.20
65046;DHT22;54657;52.022;5.534;2022-12-18T06:14:29;-1.60;75.20
65046;DHT22;54657;52.022;5.534;2022-12-18T06:16:55;-1.70;75.10
65046;DHT22;54657;52.022;5.534;2022-12-18T06:19:20;-1.70;75.10
65046;DHT22;54657;52.022;5.534;2022-12-18T06:21:46;-1.70;75.20
65046;DHT22;54657;52.022;5.534;2022-12-18T06:24:12;-1.70;75.20
65046;DHT22;54657;52.022;5.534;2022-12-18T06:26:38;-1.70;75.30
65046;DHT22;54657;52.022;5.534;2022-12-18T06:29:04;-1.70;75.10
65046;DHT22;54657;52.022;5.534;2022-12-18T06:31:30;-1.70;75.10
65046;DHT22;54657;52.022;5.534;2022-12-18T06:33:55;-1.70;75.10
65046;DHT22;54657;52.022;5.534;2022-12-18T06:36:21;-1.70;75.10
65046;DHT22;54657;52.022;5.534;2022-12-18T06:38:47;-1.70;75.00
65046;DHT22;54657;52.022;5.534;2022-12-18T06:41:14;-1.70;75.10
65046;DHT22;54657;52.022;5.534;2022-12-18T06:43:41;-1.70;75.00
65046;DHT22;54657;52.022;5.534;2022-12-18T06:46:06;-1.70;75.10
65046;DHT22;54657;52.022;5.534;2022-12-18T06:48:32;-1.80;75.00
65046;DHT22;54657;52.022;5.534;2022-12-18T06:50:58;-1.80;75.20
65046;DHT22;54657;52.022;5.534;2022-12-18T06:53:24;-1.80;75.20
65046;DHT22;54657;52.022;5.534;2022-12-18T06:55:50;-1.80;75.10
65046;DHT22;54657;52.022;5.534;2022-12-18T06:58:16;-1.80;75.20
65046;DHT22;54657;52.022;5.534;2022-12-18T07:00:42;-1.80;75.10
65046;DHT22;54657;52.022;5.534;2022-12-18T07:03:08;-1.80;75.20
65046;DHT22;54657;52.022;5.534;2022-12-18T07:05:33;-1.80;75.20
65046;DHT22;54657;52.022;5.534;2022-12-18T07:07:59;-1.80;75.20
65046;DHT22;54657;52.022;5.534;2022-12-18T07:10:25;-1.90;75.30
65046;DHT22;54657;52.022;5.534;2022-12-18T07:12:50;-1.90;75.40
65046;DHT22;54657;52.022;5.534;2022-12-18T07:15:16;-1.90;75.30
65046;DHT22;54657;52.022;5.534;2022-12-18T07:17:41;-1.90;75.50
65046;DHT22;54657;52.022;5.534;2022-12-18T07:20:07;-1.90;75.50
65046;DHT22;54657;52.022;5.534;2022-12-18T07:22:33;-2.00;75.40
65046;DHT22;54657;52.022;5.534;2022-12-18T07:24:59;-2.00;75.60
65046;DHT22;54657;52.022;5.534;2022-12-18T07:27:24;-2.00;75.80
65046;DHT22;54657;52.022;5.534;2022-12-18T07:29:50;-2.10;75.80
65046;DHT22;54657;52.022;5.534;2022-12-18T07:32:15;-2.20;75.70
65046;DHT22;54657;52.022;5.534;2022-12-18T07:34:41;-2.20;75.90
65046;DHT22;54657;52.022;5.534;2022-12-18T07:37:07;-2.30;75.90
65046;DHT22;54657;52.022;5.534;2022-12-18T07:39:32;-2.30;75.90
65046;DHT22;54657;52.022;5.534;2022-12-18T07:41:58;-2.30;75.90
65046;DHT22;54657;52.022;5.534;2022-12-18T07:44:42;-2.30;75.90
65046;DHT22;54657;52.022;5.534;2022-12-18T07:47:08;-2.30;75.80
65046;DHT22;54657;52.022;5.534;2022-12-18T07:49:33;-2.30;75.80
65046;DHT22;54657;52.022;5.534;2022-12-18T07:51:59;-2.30;75.80
65046;DHT22;54657;52.022;5.534;2022-12-18T07:54:24;-2.30;75.70
65046;DHT22;54657;52.022;5.534;2022-12-18T07:56:51;-2.20;75.60
65046;DHT22;54657;52.022;5.534;2022-12-18T07:59:17;-2.10;75.50
65046;DHT22;54657;52.022;5.534;2022-12-18T08:01:42;-2.10;75.50
65046;DHT22;54657;52.022;5.534;2022-12-18T08:04:08;-2.10;75.40
65046;DHT22;54657;52.022;5.534;2022-12-18T08:06:33;-2.10;75.40
65046;DHT22;54657;52.022;5.534;2022-12-18T08:08:59;-2.00;75.40
65046;DHT22;54657;52.022;5.534;2022-12-18T08:11:26;-1.90;75.20
65046;DHT22;54657;52.022;5.534;2022-12-18T08:13:52;-1.90;75.10
65046;DHT22;54657;52.022;5.534;2022-12-18T08:16:18;-1.90;75.10
65046;DHT22;54657;52.022;5.534;2022-12-18T08:18:44;-1.90;75.00
65046;DHT22;54657;52.022;5.534;2022-12-18T08:21:12;-1.80;75.10
65046;DHT22;54657;52.022;5.534;2022-12-18T08:23:38;-1.70;75.00
65046;DHT22;54657;52.022;5.534;2022-12-18T08:26:05;-1.60;74.90
65046;DHT22;54657;52.022;5.534;2022-12-18T08:28:30;-1.60;74.90
65046;DHT22;54657;52.022;5.534;2022-12-18T08:30:56;-1.60;74.90
65046;DHT22;54657;52.022;5.534;2022-12-18T08:33:21;-1.50;74.90
65046;DHT22;54657;52.022;5.534;2022-12-18T08:35:47;-1.40;74.80
65046;DHT22;54657;52.022;5.534;2022-12-18T08:38:13;-1.30;74.80
65046;DHT22;54657;52.022;5.534;2022-12-18T08:40:38;-1.30;74.60
65046;DHT22;54657;52.022;5.534;2022-12-18T08:43:04;-1.20;74.60
65046;DHT22;54657;52.022;5.534;2022-12-18T08:45:48;-1.20;74.40
65046;DHT22;54657;52.022;5.534;2022-12-18T08:48:13;-1.20;74.40
65046;DHT22;54657;52.022;5.534;2022-12-18T08:50:40;-1.20;74.40
65046;DHT22;54657;52.022;5.534;2022-12-18T08:53:05;-1.10;74.30
65046;DHT22;54657;52.022;5.534;2022-12-18T08:55:31;-1.00;74.30
65046;DHT22;54657;52.022;5.534;2022-12-18T08:57:56;-1.10;74.30
65046;DHT22;54657;52.022;5.534;2022-12-18T09:00:22;-1.00;74.30
65046;DHT22;54657;52.022;5.534;2022-12-18T09:02:47;-1.00;74.30
65046;DHT22;54657;52.022;5.534;2022-12-18T09:05:13;-1.00;74.30
65046;DHT22;54657;52.022;5.534;2022-12-18T09:07:38;-1.00;74.30
65046;DHT22;54657;52.022;5.534;2022-12-18T09:10:05;-0.90;74.30
65046;DHT22;54657;52.022;5.534;2022-12-18T09:12:30;-0.90;74.80
65046;DHT22;54657;52.022;5.534;2022-12-18T09:14:56;-1.00;74.20
65046;DHT22;54657;52.022;5.534;2022-12-18T09:17:22;-0.90;74.30
65046;DHT22;54657;52.022;5.534;2022-12-18T09:19:48;-0.90;74.30
65046;DHT22;54657;52.022;5.534;2022-12-18T09:22:13;-0.80;74.30
65046;DHT22;54657;52.022;5.534;2022-12-18T09:24:39;-0.80;74.20
65046;DHT22;54657;52.022;5.534;2022-12-18T09:27:04;-0.80;74.20
65046;DHT22;54657;52.022;5.534;2022-12-18T09:29:30;-0.70;74.30
65046;DHT22;54657;52.022;5.534;2022-12-18T09:31:56;-0.60;74.40
65046;DHT22;54657;52.022;5.534;2022-12-18T09:34:21;-0.60;74.30
65046;DHT22;54657;52.022;5.534;2022-12-18T09:36:47;-0.50;74.30
65046;DHT22;54657;52.022;5.534;2022-12-18T09:39:13;-0.50;74.20
65046;DHT22;54657;52.022;5.534;2022-12-18T09:44:13;-0.40;74.30
65046;DHT22;54657;52.022;5.534;2022-12-18T09:46:50;-0.40;74.20
65046;DHT22;54657;52.022;5.534;2022-12-18T09:49:21;-0.40;74.20
65046;DHT22;54657;52.022;5.534;2022-12-18T09:52:57;-0.30;74.30
65046;DHT22;54657;52.022;5.534;2022-12-18T09:55:06;-0.30;74.20
65046;DHT22;54657;52.022;5.534;2022-12-18T09:57:39;-0.20;74.30
65046;DHT22;54657;52.022;5.534;2022-12-18T10:00:20;-0.10;74.20
65046;DHT22;54657;52.022;5.534;2022-12-18T10:02:47;0.00;74.20
65046;DHT22;54657;52.022;5.534;2022-12-18T10:05:20;-0.10;74.00
65046;DHT22;54657;52.022;5.534;2022-12-18T10:08:07;-0.10;74.10
65046;DHT22;54657;52.022;5.534;2022-12-18T10:10:51;0.00;74.20
65046;DHT22;54657;52.022;5.534;2022-12-18T10:13:37;0.00;74.30
65046;DHT22;54657;52.022;5.534;2022-12-18T10:21:53;0.20;74.10
65046;DHT22;54657;52.022;5.534;2022-12-18T10:27:18;0.30;73.90
65046;DHT22;54657;52.022;5.534;2022-12-18T10:29:47;0.40;74.00
65046;DHT22;54657;52.022;5.534;2022-12-18T10:32:21;0.40;73.90
65046;DHT22;54657;52.022;5.534;2022-12-18T10:34:49;0.50;73.80
65046;DHT22;54657;52.022;5.534;2022-12-18T10:37:19;0.60;73.80
65046;DHT22;54657;52.022;5.534;2022-12-18T10:39:47;0.60;73.70
65046;DHT22;54657;52.022;5.534;2022-12-18T10:42:29;0.70;73.70
65046;DHT22;54657;52.022;5.534;2022-12-18T10:45:21;0.60;73.60
65046;DHT22;54657;52.022;5.534;2022-12-18T10:47:49;0.70;73.70
65046;DHT22;54657;52.022;5.534;2022-12-18T10:52:55;0.80;73.60
65046;DHT22;54657;52.022;5.534;2022-12-18T10:55:20;0.80;73.60
65046;DHT22;54657;52.022;5.534;2022-12-18T10:57:46;0.80;73.50
65046;DHT22;54657;52.022;5.534;2022-12-18T11:00:30;0.90;73.60
65046;DHT22;54657;52.022;5.534;2022-12-18T11:02:56;0.90;73.60
65046;DHT22;54657;52.022;5.534;2022-12-18T11:05:29;0.90;73.70
65046;DHT22;54657;52.022;5.534;2022-12-18T11:08:00;0.90;73.60
65046;DHT22;54657;52.022;5.534;2022-12-18T11:10:37;0.90;73.60
65046;DHT22;54657;52.022;5.534;2022-12-18T11:13:20;0.90;73.40
65046;DHT22;54657;52.022;5.534;2022-12-18T11:15:46;1.00;73.50
65046;DHT22;54657;52.022;5.534;2022-12-18T11:20:44;1.00;73.60
65046;DHT22;54657;52.022;5.534;2022-12-18T11:23:15;1.00;73.50
65046;DHT22;54657;52.022;5.534;2022-12-18T11:25:53;1.10;73.50
65046;DHT22;54657;52.022;5.534;2022-12-18T11:36:29;1.20;73.00
65046;DHT22;54657;52.022;5.534;2022-12-18T11:38:59;1.30;73.40
65046;DHT22;54657;52.022;5.534;2022-12-18T11:41:39;1.40;73.60
65046;DHT22;54657;52.022;5.534;2022-12-18T11:44:35;1.50;73.20
65046;DHT22;54657;52.022;5.534;2022-12-18T11:50:00;1.60;73.00
65046;DHT22;54657;52.022;5.534;2022-12-18T11:55:00;1.60;73.10
65046;DHT22;54657;52.022;5.534;2022-12-18T11:57:30;1.50;73.00
65046;DHT22;54657;52.022;5.534;2022-12-18T12:09:02;1.60;73.10
65046;DHT22;54657;52.022;5.534;2022-12-18T12:12:21;1.70;73.10
65046;DHT22;54657;52.022;5.534;2022-12-18T12:14:29;1.80;73.10
65046;DHT22;54657;52.022;5.534;2022-12-18T12:17:05;1.80;73.10
65046;DHT22;54657;52.022;5.534;2022-12-18T12:19:42;1.80;73.00
65046;DHT22;54657;52.022;5.534;2022-12-18T12:36:17;1.90;73.00
65046;DHT22;54657;52.022;5.534;2022-12-18T12:38:51;1.90;73.00
65046;DHT22;54657;52.022;5.534;2022-12-18T12:41:22;1.90;73.20
65046;DHT22;54657;52.022;5.534;2022-12-18T12:44:14;1.90;73.10
65046;DHT22;54657;52.022;5.534;2022-12-18T12:46:42;1.90;73.10
65046;DHT22;54657;52.022;5.534;2022-12-18T12:49:15;2.00;73.20
65046;DHT22;54657;52.022;5.534;2022-12-18T12:52:07;2.00;73.20
65046;DHT22;54657;52.022;5.534;2022-12-18T12:54:34;2.00;73.00
65046;DHT22;54657;52.022;5.534;2022-12-18T12:57:19;2.00;73.10
65046;DHT22;54657;52.022;5.534;2022-12-18T13:00:01;2.00;72.80
65046;DHT22;54657;52.022;5.534;2022-12-18T13:09:03;2.10;72.70
65046;DHT22;54657;52.022;5.534;2022-12-18T13:11:47;2.10;72.50
65046;DHT22;54657;52.022;5.534;2022-12-18T13:14:40;2.20;72.80
65046;DHT22;54657;52.022;5.534;2022-12-18T13:23:35;2.20;72.60
65046;DHT22;54657;52.022;5.534;2022-12-18T13:32:01;2.20;72.40
65046;DHT22;54657;52.022;5.534;2022-12-18T13:34:29;2.20;72.60
65046;DHT22;54657;52.022;5.534;2022-12-18T13:37:35;2.20;72.70
65046;DHT22;54657;52.022;5.534;2022-12-18T13:47:37;2.30;72.60
65046;DHT22;54657;52.022;5.534;2022-12-18T13:56:31;2.30;72.40
65046;DHT22;54657;52.022;5.534;2022-12-18T13:59:22;2.40;72.40
65046;DHT22;54657;52.022;5.534;2022-12-18T14:06:03;2.50;72.10
65046;DHT22;54657;52.022;5.534;2022-12-18T14:08:45;2.40;72.30
65046;DHT22;54657;52.022;5.534;2022-12-18T14:24:39;2.30;72.40
65046;DHT22;54657;52.022;5.534;2022-12-18T14:30:43;2.30;71.60
65046;DHT22;54657;52.022;5.534;2022-12-18T14:33:32;2.30;72.50
65046;DHT22;54657;52.022;5.534;2022-12-18T14:36:13;2.30;72.40
65046;DHT22;54657;52.022;5.534;2022-12-18T14:38:59;2.30;72.40
65046;DHT22;54657;52.022;5.534;2022-12-18T14:41:25;2.30;72.30
65046;DHT22;54657;52.022;5.534;2022-12-18T14:43:56;2.30;72.30
65046;DHT22;54657;52.022;5.534;2022-12-18T14:46:34;2.30;72.20
65046;DHT22;54657;52.022;5.534;2022-12-18T14:51:57;2.30;72.10
65046;DHT22;54657;52.022;5.534;2022-12-18T14:54:30;2.30;72.10
65046;DHT22;54657;52.022;5.534;2022-12-18T14:57:24;2.40;72.10
65046;DHT22;54657;52.022;5.534;2022-12-18T14:59:51;2.40;72.50
65046;DHT22;54657;52.022;5.534;2022-12-18T15:02:34;2.40;71.70
65046;DHT22;54657;52.022;5.534;2022-12-18T15:05:30;2.40;71.80
65046;DHT22;54657;52.022;5.534;2022-12-18T15:07:58;2.40;71.60
65046;DHT22;54657;52.022;5.534;2022-12-18T15:10:30;2.40;71.30
65046;DHT22;54657;52.022;5.534;2022-12-18T15:18:11;2.50;71.30
65046;DHT22;54657;52.022;5.534;2022-12-18T15:20:46;2.40;71.70
65046;DHT22;54657;52.022;5.534;2022-12-18T15:23:21;2.40;71.40
65046;DHT22;54657;52.022;5.534;2022-12-18T15:28:28;2.30;71.70
65046;DHT22;54657;52.022;5.534;2022-12-18T15:33:26;2.40;71.40
65046;DHT22;54657;52.022;5.534;2022-12-18T15:36:04;2.40;71.00
65046;DHT22;54657;52.022;5.534;2022-12-18T15:38:30;2.40;70.70
65046;DHT22;54657;52.022;5.534;2022-12-18T15:40:57;2.40;70.70
65046;DHT22;54657;52.022;5.534;2022-12-18T15:43:23;2.40;70.60
65046;DHT22;54657;52.022;5.534;2022-12-18T15:48:27;2.50;71.30
65046;DHT22;54657;52.022;5.534;2022-12-18T15:50:54;2.40;71.30
65046;DHT22;54657;52.022;5.534;2022-12-18T15:53:27;2.40;70.30
65046;DHT22;54657;52.022;5.534;2022-12-18T15:55:54;2.40;70.80
65046;DHT22;54657;52.022;5.534;2022-12-18T15:58:38;2.40;71.10
65046;DHT22;54657;52.022;5.534;2022-12-18T16:01:04;2.40;70.70
65046;DHT22;54657;52.022;5.534;2022-12-18T16:03:29;2.40;70.40
65046;DHT22;54657;52.022;5.534;2022-12-18T16:05:55;2.40;70.60
65046;DHT22;54657;52.022;5.534;2022-12-18T16:08:20;2.40;70.90
65046;DHT22;54657;52.022;5.534;2022-12-18T16:10:46;2.30;70.80
65046;DHT22;54657;52.022;5.534;2022-12-18T16:13:15;2.30;70.30
65046;DHT22;54657;52.022;5.534;2022-12-18T16:15:42;2.30;70.40
65046;DHT22;54657;52.022;5.534;2022-12-18T16:18:10;2.30;70.10
65046;DHT22;54657;52.022;5.534;2022-12-18T16:20:36;2.40;70.60
65046;DHT22;54657;52.022;5.534;2022-12-18T16:23:03;2.40;70.30
65046;DHT22;54657;52.022;5.534;2022-12-18T16:25:28;2.40;70.80
65046;DHT22;54657;52.022;5.534;2022-12-18T16:27:55;2.30;70.80
65046;DHT22;54657;52.022;5.534;2022-12-18T16:30:24;2.30;70.60
65046;DHT22;54657;52.022;5.534;2022-12-18T16:32:51;2.30;70.60
65046;DHT22;54657;52.022;5.534;2022-12-18T16:35:17;2.30;70.70
65046;DHT22;54657;52.022;5.534;2022-12-18T16:37:43;2.40;70.50
65046;DHT22;54657;52.022;5.534;2022-12-18T16:40:11;2.40;70.20
65046;DHT22;54657;52.022;5.534;2022-12-18T16:42:39;2.40;70.50
65046;DHT22;54657;52.022;5.534;2022-12-18T16:45:06;2.40;70.80
65046;DHT22;54657;52.022;5.534;2022-12-18T16:47:32;2.30;70.60
65046;DHT22;54657;52.022;5.534;2022-12-18T16:49:58;2.30;69.80
65046;DHT22;54657;52.022;5.534;2022-12-18T16:52:24;2.30;70.40
65046;DHT22;54657;52.022;5.534;2022-12-18T16:54:49;2.30;70.80
65046;DHT22;54657;52.022;5.534;2022-12-18T16:57:17;2.30;70.00
65046;DHT22;54657;52.022;5.534;2022-12-18T16:59:44;2.20;70.10
65046;DHT22;54657;52.022;5.534;2022-12-18T17:02:15;2.20;70.20
65046;DHT22;54657;52.022;5.534;2022-12-18T17:04:41;2.30;70.30
65046;DHT22;54657;52.022;5.534;2022-12-18T17:07:07;2.30;70.50
65046;DHT22;54657;52.022;5.534;2022-12-18T17:09:33;2.30;69.50
65046;DHT22;54657;52.022;5.534;2022-12-18T17:11:58;2.20;70.40
65046;DHT22;54657;52.022;5.534;2022-12-18T17:14:24;2.20;70.40
65046;DHT22;54657;52.022;5.534;2022-12-18T17:16:52;2.20;70.10
65046;DHT22;54657;52.022;5.534;2022-12-18T17:19:17;2.20;70.60
65046;DHT22;54657;52.022;5.534;2022-12-18T17:21:46;2.20;70.00
65046;DHT22;54657;52.022;5.534;2022-12-18T17:24:12;2.20;70.20
65046;DHT22;54657;52.022;5.534;2022-12-18T17:26:38;2.20;70.00
65046;DHT22;54657;52.022;5.534;2022-12-18T17:29:03;2.20;70.30
65046;DHT22;54657;52.022;5.534;2022-12-18T17:31:30;2.20;69.70
65046;DHT22;54657;52.022;5.534;2022-12-18T17:33:56;2.30;70.30
65046;DHT22;54657;52.022;5.534;2022-12-18T17:36:22;2.30;70.50
65046;DHT22;54657;52.022;5.534;2022-12-18T17:38:53;2.20;70.10
65046;DHT22;54657;52.022;5.534;2022-12-18T17:41:19;2.30;70.50
65046;DHT22;54657;52.022;5.534;2022-12-18T17:43:50;2.30;70.40
65046;DHT22;54657;52.022;5.534;2022-12-18T17:46:16;2.30;70.10
65046;DHT22;54657;52.022;5.534;2022-12-18T17:48:42;2.30;70.30
65046;DHT22;54657;52.022;5.534;2022-12-18T17:51:09;2.30;70.40
65046;DHT22;54657;52.022;5.534;2022-12-18T17:53:35;2.30;70.30
65046;DHT22;54657;52.022;5.534;2022-12-18T17:56:01;2.30;70.50
65046;DHT22;54657;52.022;5.534;2022-12-18T17:58:30;2.30;70.00
65046;DHT22;54657;52.022;5.534;2022-12-18T18:00:56;2.30;69.90
65046;DHT22;54657;52.022;5.534;2022-12-18T18:03:24;2.30;70.00
65046;DHT22;54657;52.022;5.534;2022-12-18T18:05:57;2.40;70.40
65046;DHT22;54657;52.022;5.534;2022-12-18T18:08:23;2.30;70.20
65046;DHT22;54657;52.022;5.534;2022-12-18T18:10:49;2.20;70.00
65046;DHT22;54657;52.022;5.534;2022-12-18T18:13:24;2.20;70.30
65046;DHT22;54657;52.022;5.534;2022-12-18T18:16:09;2.20;69.80
65046;DHT22;54657;52.022;5.534;2022-12-18T18:18:35;2.20;69.70